Tiempo atmosférico en la estación meteorológica de Bilbao Aeropuerto, Bizkaia (42 m.)



Fecha
DESCASC
Temp. máxima en grados centígrados (hora)
DESCASC
Temp. mínima en grados centígrados (hora)
DESCASC
Temp. media en grados centígrados
DESCASC
Racha de viento máxima en m/sg (hora)
DESCASC
Velocidad máxima media en intervalos de 10 minutos(hora)
DESCASC
Precipitaciones diarias en mm
DESCASC
Precipitaciones de 00:00 a 06:00 en mm
DESCASC
Precipitaciones de 06:00 a 12:00 en mm
DESCASC
Precipitaciones de 12:00 a 18:00 en mm
DESCASC
Precipitaciones de 18:00 a 24:00 en mm
DESCASC
10-07-2020 23.2 (14:10) 17.9 (21:20) 20.6 7.78 (14:10) 5 (15:00) -- -- -- -- --
09-07-2020 25 (15:30) 16.8 (06:50) 20.9 8.33 (11:20) 6.11 (17:50) -- -- -- -- --
08-07-2020 27.9 (15:30) 13.8 (06:20) 20.8 10.83 (15:20) 6.11 (17:20) -- -- -- -- --
07-07-2020 24.8 (17:00) 14.3 (07:00) 19.5 9.72 (20:00) 5.83 (18:40) -- 0 0 -- --
06-07-2020 20.2 (11:30) 15.8 (00:00) 18 8.33 (10:50) 5.28 (11:00) 0.4 0 0.4 0 0
05-07-2020 27.7 (14:10) 13.5 (00:00) 20.6 9.17 (15:10) 6.94 (15:30) 0 0 0 0 0
04-07-2020 26.2 (15:30) 10.5 (00:00) 18.4 7.22 (17:30) 4.44 (17:50) 0 0 0 0 0
03-07-2020 21.7 (15:10) 13.4 (07:10) 17.6 7.22 (14:10) 4.72 (13:10) 0 0 0 0 0
02-07-2020 19.6 (15:50) 15.6 (00:00) 17.6 10.83 (20:30) 7.22 (20:30) 1 0.2 0.8 0 0
01-07-2020 24.2 (15:50) 17.2 (00:00) 20.7 7.78 (16:00) 4.72 (16:10) 1.1 0 0 0 1.1
30-06-2020 27.3 (15:00) 14.2 (00:00) 20.7 8.33 (15:30) 5.83 (15:40) 0 0 0 0 0
29-06-2020 20.4 (17:00) 16.9 (00:00) 18.6 6.11 (02:10) 3.89 (02:20) -- -- 0.6 0 0
28-06-2020 27.4 (15:30) 17.7 (00:00) 22.6 11.39 (17:20) 7.5 (17:30) 0 0 0 0 0
27-06-2020 28 (14:40) 14.5 (00:00) 21.3 9.72 (20:30) 6.67 (20:40) 0 0 0 0 0
26-06-2020 19.8 (15:10) 15.9 (00:00) 17.8 5.83 (01:20) 3.61 (01:20) 0 0 0 0 0
25-06-2020 24 (12:50) 17.9 (00:00) 20.9 9.72 (13:00) 6.67 (13:00) 6.6 0 0 1.1 5.5
24-06-2020 26.3 (10:50) 19 (00:00) 22.6 12.5 (18:30) 8.61 (18:30) 0 0 0 0 0
23-06-2020 32.2 (15:20) 14.5 (00:00) 23.4 7.22 (16:10) 4.72 (18:30) 0 0 0 0 0
22-06-2020 26.8 (15:40) 15.4 (00:00) 21.1 7.78 (17:00) 4.72 (19:00) 0 0 0 0 0
21-06-2020 24.4 (16:00) 13 (00:00) 18.7 10.28 (15:00) 5.83 (16:20) 0 0 0 0 0
20-06-2020 25.1 (16:40) 11.7 (00:00) 18.4 8.89 (15:00) 5.28 (20:40) 0 0 0 0 0
19-06-2020 21.2 (18:40) 11.6 (00:00) 16.4 6.67 (18:50) 4.17 (18:40) 0 0 0 0 0
18-06-2020 20.4 (15:40) 13.5 (00:00) 16.9 7.78 (16:00) 4.72 (16:30) 4.4 4.4 0 0 0
17-06-2020 20.1 (17:10) 13.2 (00:00) 16.7 11.67 (17:10) 6.67 (13:20) 0.4 0 0 0.4 0
16-06-2020 19.6 (11:40) 14.2 (00:00) 16.9 8.89 (13:30) 6.11 (12:30) 2.2 0 0 2.2 0

Gráficas

Temp. máximas Temp. mínimas Temp. medias Precipitaciones Rachas de viento máximas Velocidades máximas media en intervalos de 10 minutos

Datos horarios

Fecha y hora oficial Temperatura (ºC) Velocidad del viento (km/h) Dirección del viento Racha (km/h) Dirección de racha Precipitación (mm) Presión (hPa) Tendencia (hPa) Humedad (%)
2020-07-15 23:00:00 19.1 5 Noroeste 13 Noroeste -- 1019.5 1 74
2020-07-15 22:00:00 19.3 6 Noroeste 13 Noroeste -- 1019.1 0.6 73
2020-07-15 21:00:00 19.9 9 Noroeste 18 Noroeste -- 1018.9 0.3 70
2020-07-15 20:00:00 21.1 13 Noroeste 24 Norte -- 1018.5 -0.2 63
2020-07-15 19:00:00 21.3 12 Noroeste 28 Norte -- 1018.5 -0.3 63
2020-07-15 18:00:00 22 14 Noroeste 30 Oeste -- 1018.6 -0.3 64
2020-07-15 17:00:00 22.4 16 Oeste 30 Noroeste -- 1018.7 -0.3 62
2020-07-15 16:00:00 21.8 19 Norte 33 Norte -- 1018.8 -0.2 62
2020-07-15 15:00:00 21.9 18 Noroeste 30 Noroeste -- 1018.9 -- 62
2020-07-15 14:00:00 21.8 15 Noroeste 30 Noroeste -- 1019 -- 66
2020-07-15 13:00:00 20.6 14 Noroeste 30 Noroeste -- 1019 -- 76
2020-07-15 12:00:00 20.4 15 Noroeste 24 Oeste -- 1018.6 -- 72
2020-07-15 11:00:00 18.3 7 Oeste 13 Oeste -- 1018.6 -- 91
2020-07-15 10:00:00 16.5 3 Norte 8 Noroeste -- 1018.3 -- 97
2020-07-15 09:00:00 15.7 4 Oeste 13 Sudoeste -- 1017.9 -- 96
2020-07-15 08:00:00 15.3 7 Sudoeste 11 Sudoeste -- 1017.6 -- 96
2020-07-15 07:00:00 16.4 8 Noroeste 13 Noroeste -- 1017.3 -- 86
2020-07-15 06:00:00 16.1 6 Este 8 Este -- 1016.9 -- 86
2020-07-15 05:00:00 15.7 6 Este 11 Este -- 1016.7 -- 88
2020-07-15 04:00:00 15.6 6 Este 9 Este -- 1016.8 -- 88
2020-07-15 03:00:00 14.6 6 Este 11 Este -- 1017.3 -- 90
2020-07-15 02:00:00 14.9 8 Nordeste 11 Este -- 1017.6 -- 89
2020-07-15 01:00:00 16.2 5 Este 8 Sudeste -- 1017.7 -- 83
2020-07-15 00:00:00 16.9 4 Nordeste 8 Este -- 1017.7 -- 81
2020-07-14 23:00:00 18.1 0 Calma 9 Noroeste -- 1017.5 -- 73
2020-07-14 22:00:00 18.9 8 Noroeste 26 Noroeste -- 1017.1 -- 70
2020-07-14 21:00:00 20.1 13 Noroeste 26 Noroeste -- 1016.7 -- 65
2020-07-14 20:00:00 20.8 17 Noroeste 30 Norte -- 1016.5 -- 61
2020-07-14 19:00:00 21.5 21 Noroeste 32 Noroeste -- 1016.3 -- 57
2020-07-14 18:00:00 21.7 21 Noroeste 35 Noroeste -- 1016.4 -- 57
2020-07-14 17:00:00 22.2 22 Noroeste 35 Noroeste -- 1016.5 -- 54
2020-07-14 16:00:00 22.3 20 Noroeste 39 Noroeste -- 1016.5 -- 55
2020-07-14 15:00:00 22.1 21 Noroeste 35 Noroeste -- 1016.8 -- 60
2020-07-14 14:00:00 22.3 20 Noroeste 39 Noroeste -- 1016.8 -- 62
2020-07-14 13:00:00 22.4 20 Noroeste 33 Noroeste -- 1016.9 -- 57
2020-07-14 12:00:00 21.7 18 Oeste 30 Noroeste -- 1017.1 -- 65
2020-07-14 11:00:00 20.7 19 Noroeste 28 Noroeste -- 1017.4 -- 66
2020-07-14 10:00:00 19.6 5 Noroeste 13 Oeste -- 1017.4 -- 75
2020-07-14 09:00:00 17.8 4 Este 13 Este -- 1017.5 -- 85
2020-07-14 08:00:00 15.5 8 Este 11 Este -- 1017.6 -- 93
2020-07-14 07:00:00 14.5 7 Este 11 Este -- 1017.8 -- 96
2020-07-14 06:00:00 14.8 7 Este 9 Este -- 1017.8 -- 96
2020-07-14 05:00:00 15.3 4 Este 8 Este -- 1018 -- 95
2020-07-14 04:00:00 15.5 6 Este 9 Este -- 1018.2 -- 95
2020-07-14 03:00:00 15.8 4 Este 8 Este -- 1018.5 -- 94
2020-07-14 02:00:00 16.3 6 Este 9 Este -- 1019 -- 93
2020-07-14 01:00:00 16.9 5 Este 8 Este -- 1019.2 -- 92
2020-07-14 00:00:00 17.6 3 Sudeste 5 Sudeste -- 1019.7 -- 89
2020-07-13 23:00:00 19.4 2 Noroeste 11 Norte -- 1019.7 -- 83
2020-07-13 22:00:00 20.1 6 Noroeste 17 Noroeste -- 1019.3 0.5 80
2020-07-13 21:00:00 22.1 11 Noroeste 21 Norte -- 1019.1 0.1 68
2020-07-13 20:00:00 23.2 14 Noroeste 26 Noroeste -- 1019 -0.2 65
2020-07-13 19:00:00 24 16 Noroeste 28 Noroeste -- 1018.8 -0.8 64
2020-07-13 18:00:00 24.2 18 Noroeste 30 Noroeste -- 1019 -0.9 63
2020-07-13 17:00:00 24.7 14 Noroeste 28 Noroeste -- 1019.2 -0.9 64
2020-07-13 16:00:00 24.8 13 Noroeste 30 Oeste -- 1019.6 -0.5 65
2020-07-13 15:00:00 24.5 15 Noroeste 28 Noroeste -- 1019.9 -0.4 67
2020-07-13 14:00:00 24.4 15 Noroeste 28 Noroeste -- 1020.1 0.1 65
2020-07-13 13:00:00 23.8 14 Noroeste 26 Noroeste -- 1020.1 0.2 65
2020-07-13 12:00:00 22.9 13 Noroeste 24 Noroeste -- 1020.3 0.4 71
2020-07-13 11:00:00 21.9 17 Noroeste 28 Noroeste -- 1020 0.2 74
2020-07-13 10:00:00 20.9 11 Oeste 18 Noroeste -- 1019.9 0.6 77
2020-07-13 09:00:00 19.1 4 Este 9 Este -- 1019.9 1 83
2020-07-13 08:00:00 16.5 5 Nordeste 11 Este -- 1019.8 1.2 93
2020-07-13 07:00:00 16.1 6 Este 9 Este -- 1019.3 -- 95
2020-07-13 06:00:00 16.6 5 Este 9 Este -- 1018.9 0.2 94
2020-07-13 05:00:00 17.4 7 Este -- -- -- 1018.6 -0.2 91
2020-07-13 04:00:00 18.3 3 Sudeste 8 Sudeste -- 1018.7 0 89
2020-07-13 03:00:00 18.4 0 Calma 5 Este -- 1018.7 0 89
2020-07-13 02:00:00 18.6 0 Calma 8 Oeste -- 1018.8 0.3 83
2020-07-13 01:00:00 19.8 4 Sudoeste 9 Oeste -- 1018.7 0.7 78
2020-07-13 00:00:00 20.5 7 Oeste 15 Norte -- 1018.7 1.1 72
2020-07-12 23:00:00 20.7 6 Norte 15 Noroeste -- 1018.5 2.2 74
2020-07-12 22:00:00 20.7 11 Oeste 21 Oeste -- 1018 2 76
2020-07-12 21:00:00 21.7 13 Oeste 22 Oeste -- 1017.6 2.1 73
2020-07-12 20:00:00 23.1 15 Noroeste 30 Norte -- 1016.3 1.1 67
2020-07-12 19:00:00 24.4 10 Norte 24 Norte -- 1016 1.1 61
2020-07-12 18:00:00 24.7 16 Norte 26 Nordeste -- 1015.5 1 63
2020-07-12 17:00:00 25.7 18 Nordeste 26 Nordeste -- 1015.2 0.6 61
2020-07-12 16:00:00 24.8 13 Oeste 22 Oeste -- 1014.9 -0.3 68
2020-07-12 15:00:00 22.9 15 Oeste 24 Oeste -- 1014.5 -- 69
2020-07-12 14:00:00 21.7 13 Oeste 21 Oeste -- 1014.6 -0.6 84
2020-07-12 13:00:00 21.8 2 Oeste 17 Sudeste -- 1015.2 -- 79
2020-07-12 12:00:00 19.7 13 Este 30 Este -- 1014.7 -- 88
2020-07-12 11:00:00 17.8 14 Este 22 Este -- 1015.2 -- 96
2020-07-12 10:00:00 18.1 5 Nordeste 39 Sudeste -- 1016.5 -1.3 91
2020-07-12 09:00:00 17.7 28 Este 52 Este -- 1013.5 -- 94
2020-07-12 08:00:00 17.4 10 Sudeste 32 Nordeste -- 1015.2 -- 96
2020-07-12 07:00:00 17.2 8 Oeste 15 Sudeste -- 1017.8 -- 92
2020-07-12 06:00:00 16.7 10 Sudeste 15 Sudeste -- 1015.4 -- 94
2020-07-12 05:00:00 16.3 6 Nordeste 11 Este -- 1014.9 -- 93
2020-07-12 04:00:00 16.2 6 Nordeste 9 Este -- 1014.8 -- 93
2020-07-12 03:00:00 16.2 7 Este 9 Este -- 1015.2 -- 92
2020-07-12 02:00:00 16.5 7 Este 8 Este -- 1015.7 -- 91
2020-07-12 01:00:00 17.3 4 Sudeste 5 Sudeste -- 1016.4 -- 88
2020-07-12 00:00:00 18.3 0 Calma 4 Sudeste -- 1016.7 -- 83
2020-07-11 23:00:00 20.1 0 Calma 9 Norte -- 1016.7 -- 74
2020-07-11 22:00:00 21.1 5 Este 21 Este -- 1016.2 -- 69
2020-07-11 21:00:00 22.1 14 Este 26 Nordeste -- 1016.1 -0.2 68
2020-07-11 20:00:00 23.2 14 Nordeste 28 Nordeste -- 1016 -- 64
2020-07-11 19:00:00 23.9 20 Nordeste 33 Nordeste -- 1016 -0.8 58
2020-07-11 18:00:00 24.7 17 Nordeste 33 Nordeste -- 1016.3 -- 52
2020-07-11 17:00:00 25 20 Norte 33 Nordeste -- 1016.5 -- 48
2020-07-11 16:00:00 24.8 19 Nordeste 35 Nordeste -- 1016.8 -- 48
2020-07-11 15:00:00 24.2 19 Nordeste 32 Nordeste -- 1017.2 -- 54
2020-07-11 14:00:00 23.1 4 Nordeste 18 Norte -- 1017.7 -- 64
2020-07-11 13:00:00 21.1 11 Nordeste 21 Nordeste -- 1018.1 -- 69
2020-07-11 12:00:00 21.2 6 Norte 22 Nordeste -- 1018 -- 72
2020-07-11 11:00:00 20.6 6 Sur 11 Sur -- 1018.1 -- 76
2020-07-11 10:00:00 18.9 0 Calma 8 Este -- 1018.2 -- 85
2020-07-11 09:00:00 17.6 3 Nordeste 8 Este -- 1018.2 -- 91
2020-07-11 08:00:00 17 3 Este 5 Nordeste -- 1018.1 -- 94
2020-07-11 07:00:00 16.7 4 Este 9 Este -- 1017.9 -- 95
2020-07-11 06:00:00 16.3 6 Este 8 Sudeste -- 1017.8 -- 95
2020-07-11 05:00:00 16 5 Este 9 Este -- 1017.7 -- 94
2020-07-11 04:00:00 16.9 4 Este 8 Este -- 1017.8 -- 91
2020-07-11 03:00:00 17.2 3 Este 8 Oeste -- 1018.1 -- 89
2020-07-11 02:00:00 18 4 Oeste 8 Oeste -- 1018.3 0.2 85
2020-07-11 01:00:00 18.3 3 Oeste 11 Sudoeste -- 1018.3 -- 84
2020-07-11 00:00:00 18.2 0 Calma 9 Oeste -- 1018.2 -- 90
2020-07-10 23:00:00 18.2 2 Sudeste 4 Sur -- 1018.1 -- 91
2020-07-10 22:00:00 18 3 Oeste 9 Sudoeste -- 1017.5 -- 92
2020-07-10 21:00:00 18.2 8 Oeste 21 Noroeste -- 1017.2 -- 92
2020-07-10 20:00:00 18.8 6 Oeste 18 Oeste -- 1017.1 -- 92
2020-07-10 19:00:00 19.5 12 Noroeste 22 Noroeste -- 1016.6 -- 86
2020-07-10 18:00:00 19.9 8 Noroeste 22 Norte -- 1016.3 -- 86
2020-07-10 17:00:00 19.6 9 Noroeste 28 Noroeste -- 1016.5 -- 88
2020-07-10 16:00:00 21.5 18 Norte 28 Norte -- 1016.3 -- 72
2020-07-10 15:00:00 22.5 18 Oeste 28 Norte -- 1016.3 -- 62
2020-07-10 14:00:00 22.5 13 Noroeste 24 Noroeste -- 1016.2 -0.1 61
2020-07-10 13:00:00 21.1 10 Noroeste 21 Noroeste -- 1016.4 -- 72
2020-07-10 12:00:00 19.7 8 Noroeste 15 Oeste -- 1016.5 -- 86
2020-07-10 11:00:00 19.2 8 Oeste 13 Oeste -- 1016.3 0.6 91
2020-07-10 10:00:00 18.6 8 Noroeste 13 Oeste -- 1016.4 -- 95
2020-07-10 09:00:00 18.6 4 Noroeste 5 Noroeste -- 1016.1 -- 96
2020-07-10 08:00:00 18.6 0 Calma 8 Este -- 1015.7 -- 96
2020-07-10 07:00:00 18.5 4 Este 9 Este -- 1015.3 -- 94
2020-07-10 06:00:00 18.6 4 Nordeste 9 Nordeste -- 1015.2 -- 92
2020-07-10 05:00:00 18.6 7 Este 9 Este -- 1015.2 -- 91
2020-07-10 04:00:00 18.8 2 Sudeste 9 Norte -- 1015.1 -- 90
2020-07-10 03:00:00 19.1 3 Este 8 Este -- 1015.7 -- 89
2020-07-10 02:00:00 19.8 4 Noroeste 11 Noroeste -- 1016 -- 84
2020-07-10 01:00:00 20.1 7 Noroeste 11 Noroeste -- 1016.4 -- 84
2020-07-10 00:00:00 20.3 5 Noroeste 13 Noroeste -- 1016.2 -- 84
2020-07-09 23:00:00 20.6 7 Noroeste 13 Noroeste -- 1015.5 -- 81
2020-07-09 22:00:00 20.7 7 Noroeste 22 Norte -- 1014.9 -- 83
2020-07-09 21:00:00 21.3 15 Noroeste 21 Noroeste -- 1014.7 -- 80
2020-07-09 20:00:00 22.2 11 Noroeste 24 Noroeste -- 1014.9 -- 77
2020-07-09 19:00:00 23.7 17 Noroeste 28 Noroeste -- 1014.6 -- 70
2020-07-09 18:00:00 23.6 17 Noroeste 30 Oeste -- 1014.6 -- 69
2020-07-09 17:00:00 23.9 15 Noroeste 28 Oeste -- 1014.7 -- 71
2020-07-09 16:00:00 23.9 14 Noroeste 30 Noroeste -- 1015 -- 71
2020-07-09 15:00:00 24.3 17 Noroeste 26 Oeste -- 1014.9 -- 70
2020-07-09 14:00:00 24.2 12 Noroeste 26 Noroeste -- 1015.2 -- 70
2020-07-09 13:00:00 23.8 9 Noroeste 21 Noroeste -- 1015.5 -- 69
2020-07-09 12:00:00 22.9 14 Norte 30 Noroeste -- 1015.3 -- 72
2020-07-09 11:00:00 22.2 18 Noroeste 26 Noroeste -- 1015 -- 75
2020-07-09 10:00:00 21.2 8 Oeste 17 Oeste -- 1014.8 -- 81
2020-07-09 09:00:00 19.7 0 Calma 8 Noroeste -- 1014.7 -- 86
2020-07-09 08:00:00 17.7 5 Este 9 Nordeste -- 1014.6 -- 94
2020-07-09 07:00:00 16.9 -- -- -- -- -- 1014.2 -- 94
2020-07-09 06:00:00 17.6 3 Norte 9 Este -- 1013.3 -- 92
2020-07-09 05:00:00 17.9 9 Este 13 Nordeste -- 1012.8 -- 92
2020-07-09 04:00:00 18.4 5 Este 11 Este -- 1013.3 -- 90
2020-07-09 03:00:00 19.1 8 Este 11 Este -- 1013.8 -- 87
2020-07-09 02:00:00 19.6 5 Nordeste 9 Oeste -- 1014.6 -- 85
2020-07-09 01:00:00 20.4 5 Noroeste 11 Sur -- 1014.3 -- 81
2020-07-09 00:00:00 20.5 9 Noroeste 15 Noroeste -- 1013.8 -- 82
2020-07-08 23:00:00 21 5 Oeste 15 Oeste -- 1014.1 -- 79
2020-07-08 22:00:00 22.4 3 Norte 18 Oeste -- 1012.5 -- 66
2020-07-08 21:00:00 23.6 15 Oeste 22 Oeste -- 1012.4 -- 65
2020-07-08 20:00:00 25.4 12 Nordeste 30 Nordeste -- 1011.9 -- 51
2020-07-08 19:00:00 26.1 18 Nordeste 28 Norte -- 1011.7 -- 46
2020-07-08 18:00:00 26.8 17 Norte 32 Nordeste -- 1011.6 -- 46
2020-07-08 17:00:00 27.4 18 Nordeste 28 Nordeste -- 1011.8 -- 49
2020-07-08 16:00:00 27.7 18 Nordeste 39 Nordeste -- 1012.1 -- 44
2020-07-08 15:00:00 27.4 20 Norte 26 Nordeste -- 1012.4 -- 45
2020-07-08 14:00:00 27.2 14 Este 28 Nordeste -- 1012.6 -- 45
2020-07-08 13:00:00 25.9 6 Norte 15 Nordeste -- 1013 -- 54
2020-07-08 12:00:00 24.5 5 Sur 13 Nordeste -- 1013.3 -- 63
2020-07-08 11:00:00 22.6 6 Norte 13 Nordeste -- 1013.5 -- 69
2020-07-08 10:00:00 20 4 Sudeste 11 Este -- 1013.7 -- 75
2020-07-08 09:00:00 17.3 8 Este 13 Este -- 1013.9 -- 85
2020-07-08 08:00:00 15.1 9 Este 11 Este -- 1013.6 -- 92
2020-07-08 07:00:00 14 9 Este 11 Este -- 1013.5 -- 95
2020-07-08 06:00:00 14.1 8 Este 11 Este -- 1013.6 -- 94
2020-07-08 05:00:00 14.2 6 Este 9 Este -- 1013.8 -- 93
2020-07-08 04:00:00 14.8 4 Sudeste 9 Este -- 1014.1 -- 92
2020-07-08 03:00:00 15.5 5 Este 8 Este -- 1014.7 -- 90
2020-07-08 02:00:00 16.2 5 Este 8 Este -- 1015 -- 87
2020-07-08 01:00:00 16.8 5 Este 9 Sudeste -- 1015.2 -- 84
2020-07-08 00:00:00 18.1 6 Nordeste 11 Sudeste -- 1015.2 -- 77
2020-07-07 23:00:00 19.1 7 Este 17 Este -- 1015.2 -- 72
2020-07-07 22:00:00 20 10 Este 28 Nordeste -- 1014.8 -- 69
2020-07-07 21:00:00 21.2 19 Nordeste 32 Este -- 1014.3 -- 64
2020-07-07 20:00:00 22.4 21 Nordeste 35 Nordeste -- 1014.3 -0.6 63
2020-07-07 19:00:00 23.6 19 Nordeste 32 Nordeste -- 1014.3 -1 60
2020-07-07 18:00:00 24.1 17 Nordeste 30 Nordeste -- 1014.5 -1.1 55
2020-07-07 17:00:00 24.5 16 Nordeste 28 Nordeste -- 1014.9 -1.2 55
2020-07-07 16:00:00 24.4 13 Este 30 Nordeste -- 1015.3 -1.3 54
2020-07-07 15:00:00 23.6 14 Nordeste 30 Nordeste -- 1015.6 -1.3 56
2020-07-07 14:00:00 22.8 13 Este 28 Nordeste -- 1016.1 -1.1 59
2020-07-07 13:00:00 22.2 11 Nordeste 22 Este 0.3 1016.6 -1 60
2020-07-07 12:00:00 21.4 8 Este 17 Este 0 1016.9 -0.8 60
2020-07-07 11:00:00 20.3 6 Este 15 Este 0 1017.2 -0.5 59
2020-07-07 10:00:00 18.9 4 Este 11 Este 0 1017.6 -0.1 66
2020-07-07 09:00:00 17.4 7 Este 11 Este 0 1017.7 -0.4 77
2020-07-07 08:00:00 15 5 Nordeste 8 Nordeste 0 1017.7 -0.6 88
2020-07-07 07:00:00 14.4 5 Este 11 Nordeste 0 1017.7 -- 90
2020-07-07 06:00:00 15 5 Sudeste 9 Este 0 1018.1 -- 90
2020-07-07 05:00:00 15.4 3 Nordeste 8 Nordeste 0 1018.3 -- 88
2020-07-07 04:00:00 15.8 2 Sur 5 Este 0 1018.8 -- 85
2020-07-07 03:00:00 16 3 Sudeste 8 Este 0 1019.3 -- 85
2020-07-07 02:00:00 16.1 5 Nordeste 9 Este 0 1019.7 -- 84
2020-07-07 01:00:00 15.8 6 Este 11 Este 0 1020.2 -- 85
2020-07-07 00:00:00 15.8 3 Este 8 Este 0 1020.6 -- 83
2020-07-06 23:00:00 16.3 5 Nordeste 9 Nordeste 0 1020.7 -- 79
2020-07-06 22:00:00 17.5 4 Nordeste 13 Nordeste 0 1020.3 -- 73
2020-07-06 21:00:00 18.5 10 Norte 17 Norte 0 1020.3 -- 71
2020-07-06 20:00:00 18.8 10 Norte 17 Norte 0 1020.3 -- 72
2020-07-06 19:00:00 19.3 10 Norte 22 Norte 0 1020.5 -- 71
2020-07-06 18:00:00 19.3 12 Norte 18 Norte 0 1020.9 -- 73
2020-07-06 17:00:00 19.4 11 Nordeste 18 Norte 0 1020.9 -- 72
2020-07-06 16:00:00 19.2 10 Norte 22 Norte 0 1021.1 -- 75
2020-07-06 15:00:00 19.3 13 Norte 24 Norte 0 1021.2 -- 77
2020-07-06 14:00:00 19.8 12 Norte 24 Norte 0 1021 -- 76
2020-07-06 13:00:00 19.8 15 Nordeste 24 Nordeste 0 1020.7 -- 82
2020-07-06 12:00:00 19.5 11 Norte 28 Norte 0 1020.6 -- 87
2020-07-06 11:00:00 19.5 19 Norte 30 Norte 0.2 1020.1 -- 91
2020-07-06 10:00:00 19.8 5 Oeste 15 Norte 0 1019.8 -- 91
2020-07-06 09:00:00 18.6 5 Oeste 13 Norte 0 1019.7 -- 97
2020-07-06 08:00:00 18.1 5 Noroeste 13 Norte 0.1 1019.4 -- 97
2020-07-06 07:00:00 18.3 8 Oeste 15 Oeste 0.1 1019.1 -- 99
2020-07-06 06:00:00 18.6 11 Oeste 17 Oeste 0 1018.9 -- 98
2020-07-06 05:00:00 18.8 10 Oeste 13 Noroeste 0 1018.8 -- 94
2020-07-06 04:00:00 19.1 8 Noroeste 13 Noroeste 0 1018.9 -- 88
2020-07-06 03:00:00 19.3 4 Noroeste 17 Noroeste 0 1019.3 -- 85
2020-07-06 02:00:00 19.4 13 Noroeste 18 Oeste 0 1019.7 -- 87
2020-07-06 01:00:00 19.1 0 Calma 5 Noroeste 0 1020 -- 88
2020-07-06 00:00:00 18.9 3 Noroeste 9 Noroeste 0 1020 -- 87
2020-07-05 23:00:00 19.3 7 Noroeste 15 Noroeste 0 1019.9 -- 86
2020-07-05 22:00:00 20 8 Noroeste 15 Noroeste 0 1018.8 -- 82
2020-07-05 21:00:00 21.6 13 Noroeste 18 Noroeste 0 1018.5 -- 70
2020-07-05 20:00:00 23.2 13 Noroeste 24 Oeste 0 1018.2 -- 62
2020-07-05 19:00:00 24.2 15 Noroeste 28 Oeste 0 1018.1 -- 58
2020-07-05 18:00:00 24.9 20 Oeste 33 Oeste 0 1018.3 -- 54
2020-07-05 17:00:00 25.2 22 Oeste 32 Oeste 0 1018.3 -- 49
2020-07-05 16:00:00 25.6 23 Oeste 33 Oeste 0 1018 -- 46
2020-07-05 15:00:00 26.6 22 Oeste 32 Oeste 0 1017.9 -- 49
2020-07-05 14:00:00 27.3 6 Norte 22 Oeste 0 1018.1 -- 44
2020-07-05 13:00:00 26.7 4 Noroeste 13 Este 0 1018.4 -- 42
2020-07-05 12:00:00 25.6 5 Noroeste 11 Norte 0 1018.8 -- 33
2020-07-05 11:00:00 23.5 2 Este 11 Este 0 1019 -- 49
2020-07-05 10:00:00 20.6 7 Este 13 Este 0 1019.2 -- 58
2020-07-05 09:00:00 18 8 Este 13 Este 0 1019.5 -- 68
2020-07-05 08:00:00 15.4 7 Este 15 Este 0 1019.5 -- 79
2020-07-05 07:00:00 13.5 8 Este 13 Este 0 1019.5 -- 89
2020-07-05 06:00:00 13.9 9 Este 11 Este 0 1019.3 -- 88
2020-07-05 05:00:00 14.4 7 Este 11 Este 0 1019.3 -- 88
2020-07-05 04:00:00 14.5 7 Este 9 Este 0 1019.6 -- 88
2020-07-05 03:00:00 15 7 Este 11 Este 0 1020.1 -- 87
2020-07-05 02:00:00 15.5 7 Este 11 Este 0 1020.6 -- 85
2020-07-05 01:00:00 16.2 8 Este 11 Este 0 1020.9 -- 82
2020-07-05 00:00:00 17.6 5 Este 8 Este 0 1021 -- 75
2020-07-04 23:00:00 19.2 4 Oeste 9 Oeste 0 1020.9 -- 67
2020-07-04 22:00:00 19.9 8 Oeste 15 Oeste 0 1020.5 -- 64
2020-07-04 21:00:00 22.7 12 Oeste 18 Noroeste 0 1019.9 -- 53
2020-07-04 20:00:00 24.1 12 Oeste 18 Oeste 0 1019.4 -- 49
2020-07-04 19:00:00 24.4 13 Oeste 22 Oeste 0 1019.3 -- 49
2020-07-04 18:00:00 25.1 16 Oeste 26 Oeste 0 1019.5 -- 49
2020-07-04 17:00:00 25.7 14 Noroeste 22 Oeste 0 1019.7 -- 46
2020-07-04 16:00:00 25.7 12 Norte 22 Norte 0 1019.5 -- 46
2020-07-04 15:00:00 25 5 Norte 17 Noroeste 0 1019.7 -- 41
2020-07-04 14:00:00 24.3 8 Noroeste 21 Norte 0 1020.3 -- 53
2020-07-04 13:00:00 23.1 6 Norte 18 Noroeste 0 1020.8 -- 53
2020-07-04 12:00:00 22.3 5 Este 15 Este 0 1020.6 -- 54
2020-07-04 11:00:00 20.5 7 Este 13 Este 0 1020.4 -- 63
2020-07-04 10:00:00 17.7 8 Sudeste 15 Este 0 1021 -- 72
2020-07-04 09:00:00 15 8 Sudeste 13 Este 0 1020.9 -- 81
2020-07-04 08:00:00 12.6 6 Este 9 Este 0 1020.7 -- 90
2020-07-04 07:00:00 10.7 5 Este 9 Este 0 1020.6 -- 95
2020-07-04 06:00:00 11.1 4 Este 8 Este 0 1020.6 -- 95
2020-07-04 05:00:00 11.6 0 Calma 9 Sudeste 0 1020.3 -- 95
2020-07-04 04:00:00 11.8 4 Este 9 Este 0 1020.5 -- 95
2020-07-04 03:00:00 12.1 9 Este 11 Este 0 1021 -- 95
2020-07-04 02:00:00 12.7 7 Este 11 Este 0 1021.4 -- 93
2020-07-04 01:00:00 13.4 9 Este 11 Este 0 1021.4 -- 92
2020-07-04 00:00:00 14.6 4 Este 8 Este 0 1021.3 -- 87
2020-07-03 23:00:00 15.7 4 Este 9 Nordeste 0 1021 -- 82
2020-07-03 22:00:00 18.1 7 Nordeste 13 Norte 0 1020.4 -- 71
2020-07-03 21:00:00 19.8 10 Norte 22 Norte 0 1020.1 -- 63
2020-07-03 20:00:00 20.9 13 Noroeste 22 Norte 0 1019.9 -- 54
2020-07-03 19:00:00 20.4 8 Norte 17 Nordeste 0 1019.9 -- 59
2020-07-03 18:00:00 20.8 8 Nordeste 17 Norte 0 1019.8 -- 59
2020-07-03 17:00:00 20.5 7 Este 18 Este 0 1020.1 -- 60
2020-07-03 16:00:00 20.2 9 Norte 22 Norte 0 1020.3 -- 61
2020-07-03 15:00:00 21.1 13 Norte 26 Noroeste 0 1020.4 -- 63
2020-07-03 14:00:00 20.2 13 Norte 24 Noroeste 0 1020.8 -- 67
2020-07-03 13:00:00 20.2 14 Noroeste 24 Noroeste 0 1020.8 -- 64
2020-07-03 12:00:00 19.5 11 Noroeste 21 Noroeste 0 1020.6 -- 65
2020-07-03 11:00:00 19.1 8 Noroeste 18 Noroeste 0 1020.3 -- 68
2020-07-03 10:00:00 18.4 8 Oeste 13 Oeste 0 1020.2 -- 75
2020-07-03 09:00:00 16.4 2 Este 11 Nordeste 0 1020.2 -- 88
2020-07-03 08:00:00 14.2 6 Este 9 Este 0 1020.1 -- 98
2020-07-03 07:00:00 13.6 6 Este 9 Este 0 1019.8 -- 98
2020-07-03 06:00:00 14.5 5 Este 8 Este 0 1019.5 -- 96
2020-07-03 05:00:00 15.5 3 Oeste 4 Oeste 0 1019.5 -- 93
2020-07-03 04:00:00 15.6 3 Oeste 5 Sudeste 0 1019.6 -- 93
2020-07-03 03:00:00 15.9 5 Noroeste 13 Oeste 0 1019.6 -- 90
2020-07-03 02:00:00 15.9 4 Oeste 21 Oeste 0 1019.6 -- 89
2020-07-03 01:00:00 16.7 16 Oeste 24 Oeste 0 1019.7 -- 79
2020-07-03 00:00:00 16.8 8 Oeste 15 Oeste 0 1019.6 -- 80
2020-07-02 23:00:00 16.9 2 Oeste 8 Noroeste 0 1019.2 -- 78
2020-07-02 22:00:00 16.9 5 Oeste 13 Noroeste 0 1018.5 -- 80
2020-07-02 21:00:00 16.8 13 Noroeste 39 Noroeste 0 1018.4 -- 81
2020-07-02 20:00:00 18.3 17 Noroeste 26 Noroeste 0 1017.8 -- 76
2020-07-02 19:00:00 18.5 17 Noroeste 26 Noroeste 0 1017.5 -- 75
2020-07-02 18:00:00 18.7 19 Noroeste 26 Noroeste 0 1017.4 -- 74
2020-07-02 17:00:00 18.8 15 Noroeste 26 Noroeste 0 1016.9 -- 72
2020-07-02 16:00:00 19.5 17 Noroeste 24 Noroeste 0 1016.8 -- 69
2020-07-02 15:00:00 18.7 14 Noroeste 24 Noroeste 0 1016.8 -- 77
2020-07-02 14:00:00 18.6 15 Noroeste 28 Noroeste 0 1016.6 -- 80
2020-07-02 13:00:00 18 12 Oeste 18 Oeste 0 1016.2 -- 86
2020-07-02 12:00:00 16.3 10 Oeste 22 Noroeste 0 1015.9 -- 97
2020-07-02 11:00:00 16.3 6 Oeste 9 Sudoeste 0 1015.5 -- 97
2020-07-02 10:00:00 15.9 5 Oeste 22 Oeste 0.3 1015.3 -- 98
2020-07-02 09:00:00 16.1 14 Noroeste 21 Oeste 0.4 1014.7 -- 98
2020-07-02 08:00:00 16 4 Oeste 13 Oeste 0.1 1014.2 -- 98
2020-07-02 07:00:00 16.2 6 Oeste 8 Oeste 0 1014 -- 97
2020-07-02 06:00:00 16.2 0 Calma 8 Oeste 0.1 1013.6 -- 96
2020-07-02 05:00:00 16.8 3 Noroeste 8 Norte 0 1013.5 -- 93
2020-07-02 04:00:00 16.6 0 Calma 5 Sur 0 1013.6 -- 95
2020-07-02 03:00:00 16.8 0 Calma 8 Oeste 0 1013.7 -- 95
2020-07-02 02:00:00 16.8 6 Oeste 18 Noroeste 0.1 1014 -- 97
2020-07-02 01:00:00 17.5 5 Oeste 8 Oeste 0 1014 -- 95
2020-07-02 00:00:00 17.4 3 Oeste 11 Oeste 0 1014.2 -- 96
2020-07-01 23:00:00 17.3 9 Noroeste 17 Oeste 0 1013.9 -- 97
2020-07-01 22:00:00 17.6 12 Noroeste 21 Noroeste 0.2 1013.3 -- 97
2020-07-01 21:00:00 18.4 13 Noroeste 22 Noroeste 0.3 1012.7 -- 97
2020-07-01 20:00:00 19.3 9 Noroeste 15 Noroeste 0.5 1012.5 -- 96
2020-07-01 19:00:00 19.9 8 Noroeste 26 Noroeste 0.1 1012.4 -- 93
2020-07-01 18:00:00 21 13 Noroeste 22 Norte 0 1012.1 -- 82
2020-07-01 17:00:00 21.7 14 Noroeste 26 Oeste 0 1011.6 -- 80
2020-07-01 16:00:00 23.3 17 Noroeste 28 Noroeste 0 1011.4 -- 70
2020-07-01 15:00:00 23.3 12 Oeste 21 Oeste 0 1011.4 -- 68
2020-07-01 14:00:00 22.5 13 Noroeste 21 Noroeste 0 1011.3 -- 66
2020-07-01 13:00:00 22.1 9 Noroeste 21 Norte 0 1010.8 -- 65
2020-07-01 12:00:00 22 11 Noroeste 18 Noroeste 0 1010.6 -- 64
2020-07-01 11:00:00 22.1 12 Oeste 18 Noroeste 0 1010 -- 62
2020-07-01 10:00:00 22 5 Noroeste 11 Noroeste 0 1009.7 -- 67
2020-07-01 09:00:00 20.8 3 Noroeste 8 Noroeste 0 1009.4 -- 78
2020-07-01 08:00:00 18.9 2 Nordeste 8 Nordeste 0 1009.1 -- 88
2020-07-01 07:00:00 18.5 4 Este 9 Este 0 1008.8 -- 91
2020-07-01 06:00:00 18.4 4 Sudeste 5 Sudeste 0 1008.4 -- 91
2020-07-01 05:00:00 18.1 3 Sudeste 5 Sudeste 0 1008.5 -- 92
2020-07-01 04:00:00 17.9 5 Este 8 Este 0 1008.9 -- 92
2020-07-01 03:00:00 17.6 6 Oeste 8 Oeste 0 1008.6 -- 91
2020-07-01 02:00:00 18.1 7 Este 11 Este 0 1008.9 -- 90
2020-07-01 01:00:00 18.9 5 Noroeste 11 Noroeste 0 1009.7 -- 88
2020-07-01 00:00:00 18.9 6 Noroeste 15 Oeste 0 1009.4 -- 87
2020-06-30 23:00:00 19.7 11 Oeste 17 Oeste 0 1009.2 -- 84
2020-06-30 22:00:00 20.3 12 Oeste 24 Oeste 0 1008.6 -- 81
2020-06-30 21:00:00 21.7 16 Oeste 30 Oeste 0 1008.6 -- 74
2020-06-30 20:00:00 23.7 19 Oeste 30 Oeste 0 1008.1 -- 62
2020-06-30 19:00:00 25.6 18 Oeste 28 Oeste 0 1007.9 -- 45
2020-06-30 18:00:00 26.2 17 Oeste 30 Oeste 0 1008.3 -- 38
2020-06-30 17:00:00 26.5 21 Oeste 30 Oeste 0 1008.7 -- 43
2020-06-30 16:00:00 27.1 20 Oeste 30 Oeste 0 1008.9 -- 49
2020-06-30 15:00:00 27.1 17 Oeste 26 Oeste 0 1009.3 -- 54
2020-06-30 14:00:00 26.4 9 Noroeste 18 Oeste 0 1009.9 -- 54
2020-06-30 13:00:00 25.6 6 Este 13 Este 0 1010.5 -- 51
2020-06-30 12:00:00 24.1 7 Nordeste 13 Nordeste 0 1010.9 -- 59
2020-06-30 11:00:00 22.4 6 Este 13 Este 0 1011.4 -- 68
2020-06-30 10:00:00 20.7 4 Este 13 Este 0 1012 -- 72
2020-06-30 09:00:00 18.4 6 Este 13 Sudeste 0 1012.3 -- 82
2020-06-30 08:00:00 16.3 6 Este 11 Sudeste 0 1012.6 -- 92
2020-06-30 07:00:00 14.5 5 Este 8 Este 0 1012.8 -- 97
2020-06-30 06:00:00 14.7 7 Nordeste -- -- 0 1012.8 -- 96
2020-06-30 05:00:00 14.9 4 Nordeste -- -- 0 1013.1 -- 94
2020-06-30 04:00:00 15.4 3 Este 9 Este 0 1013.7 -- 93
2020-06-30 03:00:00 16 6 Este 9 Este 0 1014.2 -- 93
2020-06-30 02:00:00 16.7 5 Este 11 Este 0 1014.6 -- 90
2020-06-30 01:00:00 17.9 5 Sudeste 8 Sudeste 0 1015.2 -- 85
2020-06-30 00:00:00 18.5 0 Calma 5 Oeste 0 1015.1 -- 81
2020-06-29 23:00:00 18.6 4 Oeste 8 Noroeste 0 1015.2 -- 80
2020-06-29 22:00:00 18.9 5 Noroeste 15 Noroeste 0 1015.1 -- 77
2020-06-29 21:00:00 19.4 10 Noroeste 17 Oeste 0 1015.1 -- 75
2020-06-29 20:00:00 19.8 11 Oeste 15 Oeste 0 1015.1 -- 73
2020-06-29 19:00:00 20.3 5 Noroeste 17 Oeste 0 1015.4 -- 72
2020-06-29 18:00:00 20.3 12 Oeste 15 Oeste 0 1015.8 -- 73
2020-06-29 17:00:00 20.3 5 Nordeste 15 Noroeste 0 1016.2 -- 74
2020-06-29 16:00:00 19.9 5 Noroeste 13 Norte 0 1016.5 -- 75
2020-06-29 15:00:00 19.5 6 Norte 13 Norte 0 1017.1 -- 77
2020-06-29 14:00:00 18.9 8 Noroeste 13 Noroeste 0 1017.6 -- 80
2020-06-29 13:00:00 17.8 5 Oeste 9 Noroeste 0 1017.7 -- 93
2020-06-29 12:00:00 17.6 4 Sudoeste 9 Nordeste 0.2 1017.7 -- 93
2020-06-29 11:00:00 17.2 4 Norte 11 Nordeste 0.1 1017.4 -- 95
2020-06-29 10:00:00 17.4 4 Oeste 11 Oeste 0 1017.5 -- 94
2020-06-29 09:00:00 17.1 6 Oeste 9 Oeste 0.2 1017.3 -- 96
2020-06-29 08:00:00 17.3 4 Noroeste 11 Norte 0.1 1017 -- 96
2020-06-29 07:00:00 17 2 Oeste 11 Oeste 0 1016.8 -- 97
2020-06-29 06:00:00 17.1 9 Oeste -- -- -- 1016.6 -- 97
2020-06-29 05:00:00 17.3 10 Noroeste 17 Oeste 0 1016.5 -- 94
2020-06-29 04:00:00 18 9 Noroeste 22 Noroeste 0 1016.5 -- 90
2020-06-29 03:00:00 18.4 14 Noroeste 22 Noroeste 0 1016.6 -- 95
2020-06-29 02:00:00 19.5 13 Noroeste 21 Noroeste 0 1016.5 -- 92
2020-06-29 01:00:00 19.9 4 Noroeste 11 Norte 0 1016.6 -- 87
2020-06-29 00:00:00 20 6 Noroeste 15 Noroeste 0 1016.8 -- 85
2020-06-28 23:00:00 20.5 8 Noroeste 15 Norte 0 1016.7 -- 81
2020-06-28 22:00:00 21 10 Noroeste 15 Norte 0 1016.2 -- 76
2020-06-28 21:00:00 21.4 10 Noroeste 21 Noroeste 0 1015.9 -- 73
2020-06-28 20:00:00 22.2 14 Noroeste 30 Noroeste 0 1015.7 1.1 70
2020-06-28 19:00:00 23.5 21 Noroeste 32 Noroeste 0 1015.3 -- 65
2020-06-28 18:00:00 24.9 18 Noroeste 41 Noroeste 0 1015.1 -- 60
2020-06-28 17:00:00 26.1 24 Noroeste 35 Noroeste 0 1014.6 -- 54
2020-06-28 16:00:00 26.8 18 Noroeste 35 Oeste 0 1014.6 -0.5 55
2020-06-28 15:00:00 26.9 14 Oeste 22 Oeste 0 1014.4 -- 50
2020-06-28 14:00:00 25.5 5 Este 17 Norte 0 1014.7 -- 62
2020-06-28 13:00:00 24 4 Noroeste 15 Este 0 1015.1 -- 67
2020-06-28 12:00:00 22.8 8 Este 21 Sudeste 0 1015.3 -- 72
2020-06-28 11:00:00 20.9 13 Este 21 Sudeste 0 1015.5 -- 80
2020-06-28 10:00:00 19.5 6 Sudeste 11 Sudeste 0 1016 -- 82
2020-06-28 09:00:00 18.8 4 Sudeste 11 Sudeste 0 1015.8 -- 85
2020-06-28 08:00:00 18.1 7 Este 11 Este 0 1015.5 -- 93
2020-06-28 07:00:00 17.7 3 Sur 9 Este 0 1015.1 -- 94
2020-06-28 06:00:00 18.2 0 Calma 8 Nordeste 0 1015 -- 87
2020-06-28 05:00:00 18.6 3 Oeste 9 Noroeste 0 1015.1 -- 86
2020-06-28 04:00:00 18.9 6 Noroeste 11 Noroeste 0 1015 -- 86
2020-06-28 03:00:00 18.9 4 Noroeste 11 Noroeste 0 1015.1 -- 85
2020-06-28 02:00:00 18.9 9 Noroeste 17 Noroeste 0 1015.4 -- 88
2020-06-28 01:00:00 19.3 11 Oeste 18 Oeste 0 1015.5 -- 87
2020-06-28 00:00:00 19.4 8 Noroeste 18 Noroeste 0 1015.3 -- 87
2020-06-27 23:00:00 19.7 13 Noroeste 28 Noroeste 0 1014.9 -- 88
2020-06-27 22:00:00 20.2 20 Noroeste 32 Oeste 0 1014.1 -- 88
2020-06-27 21:00:00 21.3 22 Oeste 35 Oeste 0 1012.9 -- 88
2020-06-27 20:00:00 25.5 15 Oeste 24 Oeste 0 1012 -- 68
2020-06-27 19:00:00 26.9 13 Noroeste 24 Oeste 0 1011.6 -- 55
2020-06-27 18:00:00 26.7 16 Oeste 26 Oeste 0 1011.7 -- 60
2020-06-27 17:00:00 27 18 Oeste 24 Oeste 0 1011.6 -- 62
2020-06-27 16:00:00 26.6 12 Oeste 22 Norte 0 1011.6 -- 63
2020-06-27 15:00:00 27.6 13 Noroeste 22 Noroeste 0 1011.6 -- 53
2020-06-27 14:00:00 27.1 6 Norte 21 Norte 0 1011.6 -- 52
2020-06-27 13:00:00 26.1 6 Noroeste 15 Noroeste 0 1011.6 -- 53
2020-06-27 12:00:00 25.3 5 Sur 11 Este 0 1011.5 -- 57
2020-06-27 11:00:00 22.9 5 Este 13 Sudeste 0 1011.4 -- 68
2020-06-27 10:00:00 20.4 5 Este 15 Sudeste 0 1011.3 -- 77
2020-06-27 09:00:00 17.5 7 Sudeste 15 Sudeste 0 1011.1 -- 85
2020-06-27 08:00:00 15.6 10 Sudeste 15 Sudeste 0 1010.9 -- 93
2020-06-27 07:00:00 14.6 8 Sudeste 13 Este 0 1011 -- 97
2020-06-27 06:00:00 14.7 9 Sudeste 13 Sudeste 0 1010.7 -- 98
2020-06-27 05:00:00 14.9 5 Este 9 Sudeste 0 1011 -- 98
2020-06-27 04:00:00 15.6 4 Sudeste 11 Sudeste 0 1010.9 -- 98
2020-06-27 03:00:00 15.9 10 Este 17 Sudeste 0 1010.9 -- 99
2020-06-27 02:00:00 14.8 6 Este 9 Este 0 1010.8 -- 98
2020-06-27 01:00:00 15.5 3 Nordeste 13 Este 0 1010.8 -- 98
2020-06-27 00:00:00 16 7 Este 11 Este 0 1010.8 -- 97
2020-06-26 23:00:00 16.9 3 Nordeste 9 Este 0 1011.2 -- 95
2020-06-26 22:00:00 17.9 8 Este 11 Este 0 1010.9 -- 90
2020-06-26 21:00:00 18.1 5 Sudeste 15 Sudeste 0 1010.8 -- 91
2020-06-26 20:00:00 18 6 Oeste 15 Noroeste 0 1010.5 -- 91
2020-06-26 19:00:00 18.5 8 Noroeste 15 Norte 0 1010.3 -- 87
2020-06-26 18:00:00 18.3 7 Norte 15 Norte 0 1010.4 -- 91
2020-06-26 17:00:00 18 10 Oeste 18 Oeste 0 1010.8 -- 91
2020-06-26 16:00:00 18.9 10 Noroeste 17 Noroeste 0 1010.8 -- 87
2020-06-26 15:00:00 19.4 6 Norte 17 Norte 0 1010.6 -- 83
2020-06-26 14:00:00 18.9 3 Norte 18 Norte 0 1011 -- 87
2020-06-26 13:00:00 18 5 Noroeste 17 Noroeste 0 1011.2 -- 94
2020-06-26 12:00:00 18.2 6 Oeste 11 Oeste 0 1011.4 -- 90
2020-06-26 11:00:00 17.6 8 Oeste 17 Noroeste 0 1011.4 -- 95
2020-06-26 10:00:00 18.1 6 Noroeste 15 Noroeste 0 1011.4 -- 90
2020-06-26 09:00:00 17.9 5 Noroeste 9 Noroeste 0 1011.2 -- 89
2020-06-26 08:00:00 17.5 4 Norte 8 Norte 0 1010.9 -- 92
2020-06-26 07:00:00 17.2 3 Oeste 11 Noroeste 0 1010.9 -- 93
2020-06-26 06:00:00 17.4 7 Noroeste 11 Noroeste 0 1011.2 -- 92
2020-06-26 05:00:00 17.5 0 Calma 8 Sudeste 0 1011.6 -- 93
2020-06-26 04:00:00 17.6 6 Este 9 Sudeste 0 1012 -- 93
2020-06-26 03:00:00 17.6 6 Oeste 21 Noroeste 0 1012.2 -- 92
2020-06-26 02:00:00 17.7 13 Noroeste 21 Noroeste 0 1012.4 -- 92
2020-06-26 01:00:00 18 10 Noroeste 18 Noroeste 0 1012.5 -- 92
2020-06-26 00:00:00 18 7 Norte 17 Norte 0 1012.7 -- 95
2020-06-25 23:00:00 18 4 Sudeste 13 Noroeste 0 1012.3 -- 95
2020-06-25 22:00:00 18.2 6 Noroeste 9 Norte 0 1012.6 -- 93
2020-06-25 21:00:00 18.1 3 Sur 18 Nordeste 0 1011.7 -- 94
2020-06-25 20:00:00 17.9 4 Nordeste 26 Noroeste 5.5 1012.9 -- 96
2020-06-25 19:00:00 18.6 17 Noroeste 26 Noroeste 0 1011.6 -- 92
2020-06-25 18:00:00 20.3 14 Oeste 21 Oeste 0.3 1010.9 -- 91
2020-06-25 17:00:00 19.3 9 Este 24 Este 0.3 1010.9 -- 94
2020-06-25 16:00:00 19.6 13 Norte 26 Noroeste 0.5 1011.5 -- 91
2020-06-25 15:00:00 20.5 18 Noroeste 33 Oeste 0 1012.8 -- 82
2020-06-25 14:00:00 20.5 20 Noroeste 33 Noroeste 0 1011.3 -- 81
2020-06-25 13:00:00 22.3 24 Oeste 35 Oeste 0 1011.8 -- 78
2020-06-25 12:00:00 23 5 Este 15 Oeste 0 1011.4 -- 73
2020-06-25 11:00:00 21.3 3 Sudeste 21 Noroeste 0 1011.8 -- 79
2020-06-25 10:00:00 19.5 15 Noroeste 28 Noroeste 0 1012.5 -- 86
2020-06-25 09:00:00 20.1 5 Norte 21 Este 0 1011.1 -- 84
2020-06-25 08:00:00 19 5 Este 13 Oeste 0 1011.2 -- 89
2020-06-25 07:00:00 18.5 9 Oeste 22 Oeste 0 1011.1 -- 92
2020-06-25 06:00:00 19.3 19 Oeste 30 Oeste 0 1010.6 -- 90
2020-06-25 05:00:00 20 2 Sudeste 22 Sudeste 0 1009.3 -- 83
2020-06-25 04:00:00 18.9 18 Sudeste 24 Este 0 1009.4 -- 93
2020-06-25 03:00:00 18.9 10 Este 15 Este 0 1010.9 -- 92
2020-06-25 02:00:00 19.2 8 Nordeste 11 Este 0 1011.7 -- 90
2020-06-25 01:00:00 19.5 9 Este 15 Sudeste 0 1012 -- 90
2020-06-25 00:00:00 20 6 Sudeste 21 Este 0 1012.5 -- 88
2020-06-24 23:00:00 19.5 12 Este 18 Este 0 1012.6 -- 90
2020-06-24 22:00:00 19.9 7 Este 11 Noroeste 0 1012.3 -- 88
2020-06-24 21:00:00 20.3 9 Noroeste 28 Norte 0 1011.9 -- 86
2020-06-24 20:00:00 20.8 17 Noroeste 26 Noroeste 0 1011.5 -- 84
2020-06-24 19:00:00 21 4 Oeste 45 Oeste 0 1010.4 -- 84
2020-06-24 18:00:00 22.5 21 Oeste 30 Oeste 0 1009.5 -- 79
2020-06-24 17:00:00 24.5 19 Oeste 28 Oeste 0 1009.3 -- 74
2020-06-24 16:00:00 24.6 19 Oeste 28 Oeste 0 1009.6 -- 75
2020-06-24 15:00:00 25.5 19 Oeste 28 Oeste 0 1009.6 -- 73
2020-06-24 14:00:00 25.5 15 Oeste 24 Oeste 0 1009.8 -- 73
2020-06-24 13:00:00 24.7 12 Oeste 22 Oeste 0 1009.7 -- 75
2020-06-24 12:00:00 23.4 13 Oeste 26 Oeste 0 1009.9 -- 81
2020-06-24 11:00:00 25 21 Oeste 30 Oeste 0 1009.6 -- 74
2020-06-24 10:00:00 24.4 5 Este 13 Oeste 0 1009.7 -- 75
2020-06-24 09:00:00 21.6 5 Oeste 13 Oeste 0 1009.8 -- 85
2020-06-24 08:00:00 20.1 8 Oeste 13 Oeste 0 1009.4 -- 91
2020-06-24 07:00:00 19.7 3 Nordeste 9 Este 0 1008.6 -- 92
2020-06-24 06:00:00 19.8 3 Este 13 Este 0 1008.5 -- 91
2020-06-24 05:00:00 19.1 7 Este 15 Este 0 1008.3 -- 92
2020-06-24 04:00:00 19.4 3 Este 13 Nordeste 0 1008.6 -- 91
2020-06-24 03:00:00 19.8 6 Este 9 Este 0 1009 -- 88
2020-06-24 02:00:00 20.2 6 Este 9 Este 0 1009.5 -- 86
2020-06-24 01:00:00 20.8 4 Sudeste 8 Sudeste 0 1009.4 -- 83
2020-06-24 00:00:00 21.5 3 Sudeste 5 Nordeste 0 1009.9 -- 81
2020-06-23 23:00:00 22.5 5 Oeste 11 Oeste 0 1010.2 -- 74
2020-06-23 22:00:00 23.9 9 Oeste 18 Oeste 0 1009.4 -- 68
2020-06-23 21:00:00 25.8 14 Oeste 18 Oeste 0 1009.1 -- 63
2020-06-23 20:00:00 27.4 15 Oeste 21 Oeste 0 1008.9 -- 60
2020-06-23 19:00:00 29.5 12 Oeste 24 Oeste 0 1008.7 -- 56
2020-06-23 18:00:00 31.5 7 Norte 26 Oeste 0 1008.8 -- 52
2020-06-23 17:00:00 31.3 14 Oeste 26 Noroeste 0 1009 -- 52
2020-06-23 16:00:00 31.4 13 Oeste 22 Oeste 0 1009.4 -- 52
2020-06-23 15:00:00 31.6 7 Sudeste 18 Este 0 1009.9 -- 44
2020-06-23 14:00:00 30.4 9 Este 24 Este 0 1010.5 -- 46
2020-06-23 13:00:00 28.8 11 Este 22 Este 0 1011.5 -- 50
2020-06-23 12:00:00 26.8 9 Este 18 Sudeste 0 1012 -- 53
2020-06-23 11:00:00 24.4 12 Este 18 Este 0 1012.6 -- 64
2020-06-23 10:00:00 21.5 10 Este 17 Este 0 1013.3 -- 73
2020-06-23 09:00:00 18.8 8 Este 11 Sudeste 0 1013.8 -- 81
2020-06-23 08:00:00 16.4 3 Este 9 Este 0 1014.2 -- 89
2020-06-23 07:00:00 14.7 6 Este 11 Este 0 1014.5 -- 94
2020-06-23 06:00:00 14.9 3 Este 9 Este 0 1014.4 -- 95
2020-06-23 05:00:00 15.1 6 Este 9 Este 0 1014.7 -- 94
2020-06-23 04:00:00 16 5 Nordeste 8 Este 0 1015.5 -- 92
2020-06-23 03:00:00 16.2 5 Nordeste 8 Este 0 1016.2 -- 91
2020-06-23 02:00:00 16.9 3 Este 9 Nordeste 0 1016.7 -- 90
2020-06-23 01:00:00 17.4 8 Nordeste 9 Este 0 1017.1 -- 88
2020-06-23 00:00:00 18.6 8 Este 15 Este 0 1017.3 -- 83
2020-06-22 23:00:00 19.5 10 Este 15 Este 0 1017.1 -- 79
2020-06-22 22:00:00 21.1 8 Nordeste 17 Nordeste 0 1016.8 -- 71
2020-06-22 21:00:00 23.6 7 Este 21 Nordeste 0 1016.5 -- 59
2020-06-22 20:00:00 25.1 13 Nordeste 22 Nordeste 0 1016.4 -- 54
2020-06-22 19:00:00 25.7 17 Nordeste 22 Nordeste 0 1016.7 -- 53
2020-06-22 18:00:00 26.3 14 Nordeste 26 Nordeste 0 1017.1 -- 57
2020-06-22 17:00:00 26.3 16 Nordeste 28 Nordeste 0 1017.8 -- 58
2020-06-22 16:00:00 26.2 14 Nordeste 24 Norte 0 1018.5 -- 58
2020-06-22 15:00:00 26.2 10 Nordeste 22 Nordeste 0 1019.2 -- 57
2020-06-22 14:00:00 25.5 6 Nordeste 21 Nordeste 0 1019.9 -- 56
2020-06-22 13:00:00 24.8 9 Este 18 Este 0 1020.4 -- 57
2020-06-22 12:00:00 23.9 10 Sudeste 17 Este 0 1020.9 -- 60
2020-06-22 11:00:00 22.9 8 Este 17 Sudeste 0 1021.3 -- 64
2020-06-22 10:00:00 20.1 2 Nordeste 8 Este 0 1022.1 -- 77
2020-06-22 09:00:00 18 5 Este 8 Este 0 1022.3 -- 88
2020-06-22 08:00:00 16.7 6 Este 8 Este 0 1022.3 -- 93
2020-06-22 07:00:00 15.7 5 Sudeste 9 Este 0 1022.3 -- 94
2020-06-22 06:00:00 15.6 4 Sudeste 5 Este 0 1022.2 -- 92
2020-06-22 05:00:00 16.4 3 Este 5 Este 0 1022.4 -- 89
2020-06-22 04:00:00 17.8 4 Nordeste 8 Nordeste 0 1022.7 -- 84
2020-06-22 03:00:00 19.2 6 Este 9 Este 0 1023.1 -- 79
2020-06-22 02:00:00 19.8 4 Este 8 Este 0 1023.6 -- 75
2020-06-22 01:00:00 20.5 6 Norte 8 Norte 0 1024 -- 68
2020-06-22 00:00:00 20.6 3 Noroeste 9 Nordeste 0 1023.9 -- 68
2020-06-21 23:00:00 20.8 5 Norte 9 Norte 0 1023.6 -- 67
2020-06-21 22:00:00 21 3 Norte 11 Norte 0 1023.1 -- 67
2020-06-21 21:00:00 21.5 8 Norte 21 Norte 0 1022.6 -- 63
2020-06-21 20:00:00 22.4 12 Norte 22 Norte 0 1022.4 -- 61
2020-06-21 19:00:00 23 15 Norte 28 Norte 0 1022.1 -- 59
2020-06-21 18:00:00 23.6 15 Norte 28 Noroeste 0 1022.1 -- 55
2020-06-21 17:00:00 23.7 21 Noroeste 30 Noroeste 0 1022 -- 54
2020-06-21 16:00:00 24.1 13 Noroeste 32 Noroeste 0 1021.7 -- 51
2020-06-21 15:00:00 23.4 15 Noroeste 37 Norte 0 1021.4 -- 54
2020-06-21 14:00:00 22.5 19 Oeste 32 Oeste 0 1021.6 -- 65
2020-06-21 13:00:00 23.3 17 Oeste 28 Noroeste 0 1021.3 -- 58
2020-06-21 12:00:00 22.5 13 Oeste 18 Oeste 0 1021 -- 57
2020-06-21 11:00:00 21 6 Oeste 13 Oeste 0 1020.7 -- 63
2020-06-21 10:00:00 19 2 Noroeste 8 Norte 0 1020.8 -- 71
2020-06-21 09:00:00 17 5 Este 11 Este 0 1020.5 -- 81
2020-06-21 08:00:00 14.7 6 Este 11 Este 0 1020.2 -- 90
2020-06-21 07:00:00 13.1 5 Este 11 Este 0 1019.9 -- 94
2020-06-21 06:00:00 13.7 5 Este 8 Este 0 1019.3 -- 93
2020-06-21 05:00:00 14.1 7 Este 9 Nordeste 0 1019.2 -- 93
2020-06-21 04:00:00 14.4 6 Sudeste 13 Este 0 1019.3 -- 93
2020-06-21 03:00:00 14.5 8 Este 11 Este 0 1019.4 -- 93
2020-06-21 02:00:00 14.9 8 Este 9 Este 0 1019.9 -- 93
2020-06-21 01:00:00 15.7 4 Este 9 Este 0 1020.1 -- 91
2020-06-21 00:00:00 16.5 6 Este 8 Este 0 1020 -- 86
2020-06-20 23:00:00 17.8 6 Oeste 15 Oeste 0 1019.8 -- 84
2020-06-20 22:00:00 18.8 10 Oeste 26 Oeste 0 1019.1 -- 79
2020-06-20 21:00:00 20.2 19 Oeste 28 Oeste 0 1018.5 -- 72
2020-06-20 20:00:00 22 19 Oeste 28 Oeste 0 1018 -- 58
2020-06-20 19:00:00 23.5 17 Oeste 30 Oeste 0 1017.5 -- 50
2020-06-20 18:00:00 24.4 13 Noroeste 26 Noroeste 0 1017.6 -- 47
2020-06-20 17:00:00 24.4 15 Noroeste 24 Norte 0 1017.5 -- 54
2020-06-20 16:00:00 24.3 13 Noroeste 28 Norte 0 1017.6 -- 59
2020-06-20 15:00:00 24.3 19 Noroeste 32 Norte 0 1017.6 -- 59
2020-06-20 14:00:00 23.9 8 Oeste 17 Oeste 0 1017.9 -- 54
2020-06-20 13:00:00 23.3 6 Norte 17 Sudeste 0 1018.3 -- 55
2020-06-20 12:00:00 22.3 6 Sudeste 11 Este 0 1018.4 -- 58
2020-06-20 11:00:00 20.1 4 Norte 8 Nordeste 0 1018.6 -- 65
2020-06-20 10:00:00 18.2 4 Nordeste 9 Sudeste 0 1018.9 -- 75
2020-06-20 09:00:00 15.7 5 Este 9 Este 0 1018.8 -- 84
2020-06-20 08:00:00 13.1 5 Este 8 Nordeste 0 1018.4 -- 93
2020-06-20 07:00:00 11.9 5 Este 8 Este 0 1018.4 -- 96
2020-06-20 06:00:00 11.9 4 Este 8 Este 0 1018.5 -- 96
2020-06-20 05:00:00 12.2 5 Este -- -- 0 1018.4 -- 96
2020-06-20 04:00:00 12.4 4 Este 9 Este 0 1018.4 -- 96
2020-06-20 03:00:00 12.5 7 Este 9 Este 0 1018.6 -- 95
2020-06-20 02:00:00 13.2 7 Este 8 Este 0 1018.6 -- 94
2020-06-20 01:00:00 13.9 2 Sudeste 9 Este 0 1019 -- 91
2020-06-20 00:00:00 14.7 6 Este 9 Este 0 1018.9 -- 89
2020-06-19 23:00:00 16.1 3 Oeste 9 Noroeste 0 1018.8 -- 84
2020-06-19 22:00:00 17.1 8 Noroeste 13 Oeste 0 1018.1 -- 81
2020-06-19 21:00:00 18.3 8 Noroeste 18 Noroeste 0 1017.3 -- 75
2020-06-19 20:00:00 19.5 12 Noroeste 22 Oeste 0 1016.9 -- 66
2020-06-19 19:00:00 21 11 Noroeste 24 Noroeste 0 1016.3 -- 63
2020-06-19 18:00:00 20.2 9 Norte 21 Norte 0 1016.1 -- 64
2020-06-19 17:00:00 20.5 11 Noroeste 22 Norte 0 1016 -- 65
2020-06-19 16:00:00 20.1 13 Norte 21 Norte 0 1016 -- 68
2020-06-19 15:00:00 20.1 13 Noroeste 22 Norte 0 1015.9 -- 69
2020-06-19 14:00:00 19.4 12 Noroeste 22 Noroeste 0 1015.9 -- 74
2020-06-19 13:00:00 19.6 7 Noroeste 15 Norte 0 1015.9 -- 69
2020-06-19 12:00:00 18.9 9 Norte 15 Norte 0 1015.7 -- 70
2020-06-19 11:00:00 19.1 4 Norte 13 Norte 0 1015.5 -- 68
2020-06-19 10:00:00 17 0 Calma 9 Sudeste 0 1015.6 -- 76
2020-06-19 09:00:00 14.9 7 Este 15 Este 0 1015.5 -- 84
2020-06-19 08:00:00 12.9 6 Este 11 Este 0 1015.3 -- 95
2020-06-19 07:00:00 12 7 Este 11 Este 0 1015.3 -- 96
2020-06-19 06:00:00 12 6 Este 9 Este 0 1014.8 -- 95
2020-06-19 05:00:00 12.7 6 Este 9 Este 0 1014.7 -- 94
2020-06-19 04:00:00 13.4 5 Este 9 Este 0 1014.9 -- 93
2020-06-19 03:00:00 13.8 4 Este 5 Este 0 1015.1 -- 92
2020-06-19 02:00:00 13.8 3 Sudeste 8 Este 0 1015.4 -- 92
2020-06-19 01:00:00 13.9 6 Este 8 Este 0 1015.1 -- 91
2020-06-19 00:00:00 14.2 7 Este 9 Sudeste 0 1015.3 -- 91
2020-06-18 23:00:00 15 0 Calma 5 Este 0 1015.1 -- 85
2020-06-18 22:00:00 16.1 3 Oeste 15 Norte 0 1014.2 -- 80
2020-06-18 21:00:00 17.6 10 Norte 17 Norte 0 1013.9 -- 70
2020-06-18 20:00:00 18.9 8 Noroeste 21 Norte 0 1013.3 -- 66
2020-06-18 19:00:00 19.3 12 Noroeste 22 Noroeste 0 1013 -- 58
2020-06-18 18:00:00 19.2 13 Norte 24 Norte 0 1013.1 -- 60
2020-06-18 17:00:00 19.8 14 Norte 28 Norte 0 1013.1 -- 62
2020-06-18 16:00:00 19.7 17 Noroeste 28 Norte 0 1013 -- 65
2020-06-18 15:00:00 19 9 Noroeste 24 Noroeste 0 1013 -- 67
2020-06-18 14:00:00 18.9 11 Noroeste 22 Noroeste 0 1013.1 -- 68
2020-06-18 13:00:00 17.6 13 Noroeste 22 Noroeste 0 1013.3 -- 69
2020-06-18 12:00:00 18.9 6 Noroeste 15 Oeste 0 1012.9 -- 67
2020-06-18 11:00:00 17.7 5 Norte 9 Norte 0 1012.8 -- 72
2020-06-18 10:00:00 16.6 3 Sur 9 Sudeste 0 1012.8 -- 80
2020-06-18 09:00:00 14.8 5 Este 11 Sudeste 0 1012.5 -- 93
2020-06-18 08:00:00 13.8 6 Este 9 Este 0 1012.5 -- 96
2020-06-18 07:00:00 13.7 5 Nordeste 8 Este 0 1012.3 -- 96
2020-06-18 06:00:00 13.7 3 Este 5 Este 0.2 1012.4 -- 94
2020-06-18 05:00:00 13.7 5 Este 5 Este 1 1012.4 -- 95
2020-06-18 04:00:00 13.9 0 Calma 9 Nordeste 2.6 1012.7 -- 96
2020-06-18 03:00:00 14.1 6 Nordeste 9 Este 0.6 1012.8 -- 94
2020-06-18 02:00:00 13.9 6 Este 11 Este 0 1013.2 -- 93
2020-06-18 01:00:00 14 5 Este 8 Este 0 1013.6 -- 93
2020-06-18 00:00:00 14.6 3 Nordeste 8 Este 0 1014 -- 90
2020-06-17 23:00:00 15.9 3 Este 8 Este 0 1014 -- 82
2020-06-17 22:00:00 16.2 5 Noroeste 11 Noroeste 0 1013.6 -- 80
2020-06-17 21:00:00 16.6 8 Noroeste 13 Noroeste 0 1013.6 -- 76
2020-06-17 20:00:00 17.1 8 Norte 18 Norte 0 1013.6 -- 72
2020-06-17 19:00:00 17.7 12 Norte 28 Noroeste 0 1013.8 -- 73
2020-06-17 18:00:00 18.6 20 Noroeste 42 Norte 0 1013.9 -- 66
2020-06-17 17:00:00 19.5 18 Noroeste 35 Noroeste 0 1013.7 -- 69
2020-06-17 16:00:00 18.8 23 Noroeste 35 Noroeste 0 1014 -- 70
2020-06-17 15:00:00 18.2 14 Noroeste 33 Oeste 0.4 1014.1 -- 80
2020-06-17 14:00:00 17.7 21 Oeste 35 Oeste 0 1014.4 -- 73
2020-06-17 13:00:00 19 19 Noroeste 35 Noroeste 0 1014.2 -- 73
2020-06-17 12:00:00 17.6 15 Noroeste 32 Noroeste 0 1014.2 -- 79
2020-06-17 11:00:00 17.8 10 Noroeste 21 Norte 0 1014 -- 72
2020-06-17 10:00:00 15.5 11 Noroeste 22 Noroeste 0 1014.4 -- 83
2020-06-17 09:00:00 14.8 7 Este 9 Este 0 1014.3 -- 90
2020-06-17 08:00:00 13.8 4 Este 11 Este 0 1014 -- 92
2020-06-17 07:00:00 13.4 5 Este 9 Este 0 1013.7 -- 93
2020-06-17 06:00:00 13.5 7 Este 9 Este 0 1013.5 -- 92
2020-06-17 05:00:00 15 3 Oeste 13 Oeste 0 1013.6 -- 79
2020-06-17 04:00:00 14.8 4 Sudoeste 11 Sudoeste 0 1014.2 -- 86
2020-06-17 03:00:00 15.4 8 Oeste 13 Sudoeste 0 1014.6 -- 77
2020-06-17 02:00:00 15.6 8 Oeste 13 Oeste 0 1015.3 -- 77
2020-06-17 01:00:00 15.7 8 Oeste 13 Sudoeste 0 1015.8 -- 77
2020-06-17 00:00:00 15.7 5 Oeste 17 Oeste 0 1016 -- 77
2020-06-16 23:00:00 15.9 4 Oeste 11 Oeste 0 1015.9 0.9 78
2020-06-16 22:00:00 16.5 6 Oeste 28 Noroeste 0 1015.5 -- 74
2020-06-16 21:00:00 16.8 17 Noroeste 28 Noroeste 0 1015.2 -- 75
2020-06-16 20:00:00 16.9 18 Noroeste 30 Noroeste 0 1015 -- 80
2020-06-16 19:00:00 16.3 5 Sudeste 9 Sudeste 0 1014.9 -- 89
2020-06-16 18:00:00 15.8 6 Oeste 24 Noroeste 1 1015.4 -- 92
2020-06-16 17:00:00 16.4 13 Noroeste 28 Oeste 0 1015.5 -- 82
2020-06-16 16:00:00 17.4 14 Noroeste 22 Noroeste 0 1015.2 -- 78
2020-06-16 15:00:00 17.5 13 Noroeste 21 Noroeste 0 1015.2 -- 78
2020-06-16 14:00:00 16.1 15 Noroeste 32 Noroeste 0.4 1015.5 -- 90
2020-06-16 13:00:00 16.1 9 Oeste 30 Norte 0.8 1015.3 -- 90
2020-06-16 12:00:00 19.4 9 Noroeste 17 Noroeste 0 1014.6 -- 70
2020-06-16 11:00:00 19 9 Este 18 Este 0 1014.6 -- 72
2020-06-16 10:00:00 18.3 10 Este 17 Este 0 1015.2 -- 76
2020-06-16 09:00:00 15.6 9 Sudeste 15 Este 0 1015.6 -- 90
2020-06-16 08:00:00 14.5 10 Este 15 Sudeste 0 1015.7 -- 97
2020-06-16 07:00:00 14.4 4 Este -- -- 0 1016.1 -- 96
2020-06-16 06:00:00 14.4 3 Este 5 Sudeste 0 1016.1 -- 96
2020-06-16 05:00:00 14.4 4 Este 9 Sudeste 0 1016.3 -- 96
2020-06-16 04:00:00 14.6 4 Este 9 Sudeste 0 1016.8 -- 96
2020-06-16 03:00:00 14.5 5 Sudeste 8 Sudeste 0 1017.3 -- 96
2020-06-16 02:00:00 14.3 3 Sudeste 11 Sudeste 0 1017.7 -- 96
2020-06-16 01:00:00 14.6 9 Este 13 Este 0 1018 -- 96
2020-06-16 00:00:00 14.9 6 Este 9 Este 0 1018.6 -- 94